sensor_id;sensor_type;location;lat;lon;timestamp;P1;durP1;ratioP1;P2;durP2;ratioP2
53505;SDS011;39388;50.936;6.848;2022-08-21T00:02:26;7.97;;;4.60;;
53505;SDS011;39388;50.936;6.848;2022-08-21T00:04:57;6.07;;;4.68;;
53505;SDS011;39388;50.936;6.848;2022-08-21T00:07:27;9.82;;;4.85;;
53505;SDS011;39388;50.936;6.848;2022-08-21T00:09:58;7.13;;;4.68;;
53505;SDS011;39388;50.936;6.848;2022-08-21T00:12:31;5.57;;;4.70;;
53505;SDS011;39388;50.936;6.848;2022-08-21T00:15:02;10.00;;;4.82;;
53505;SDS011;39388;50.936;6.848;2022-08-21T00:17:35;5.20;;;4.40;;
53505;SDS011;39388;50.936;6.848;2022-08-21T00:20:10;8.15;;;5.15;;
53505;SDS011;39388;50.936;6.848;2022-08-21T00:22:45;7.47;;;4.70;;
53505;SDS011;39388;50.936;6.848;2022-08-21T00:25:16;7.95;;;4.57;;
53505;SDS011;39388;50.936;6.848;2022-08-21T00:27:48;7.03;;;4.30;;
53505;SDS011;39388;50.936;6.848;2022-08-21T00:30:20;7.68;;;4.95;;
53505;SDS011;39388;50.936;6.848;2022-08-21T00:32:53;5.13;;;4.15;;
53505;SDS011;39388;50.936;6.848;2022-08-21T00:35:26;6.00;;;4.80;;
53505;SDS011;39388;50.936;6.848;2022-08-21T00:37:59;8.40;;;5.28;;
53505;SDS011;39388;50.936;6.848;2022-08-21T00:43:21;6.97;;;4.57;;
53505;SDS011;39388;50.936;6.848;2022-08-21T00:45:54;9.48;;;6.15;;
53505;SDS011;39388;50.936;6.848;2022-08-21T00:48:25;8.20;;;4.43;;
53505;SDS011;39388;50.936;6.848;2022-08-21T00:51:05;7.55;;;4.63;;
53505;SDS011;39388;50.936;6.848;2022-08-21T00:54:02;7.82;;;4.43;;
53505;SDS011;39388;50.936;6.848;2022-08-21T00:56:35;5.97;;;4.65;;
53505;SDS011;39388;50.936;6.848;2022-08-21T00:59:06;7.43;;;4.47;;
53505;SDS011;39388;50.936;6.848;2022-08-21T01:01:37;7.30;;;4.70;;
53505;SDS011;39388;50.936;6.848;2022-08-21T01:04:07;5.45;;;4.32;;
53505;SDS011;39388;50.936;6.848;2022-08-21T01:06:38;7.50;;;4.93;;
53505;SDS011;39388;50.936;6.848;2022-08-21T01:09:09;7.20;;;4.40;;
53505;SDS011;39388;50.936;6.848;2022-08-21T01:11:40;6.35;;;4.75;;
53505;SDS011;39388;50.936;6.848;2022-08-21T01:14:13;7.43;;;4.70;;
53505;SDS011;39388;50.936;6.848;2022-08-21T01:16:44;9.18;;;4.95;;
53505;SDS011;39388;50.936;6.848;2022-08-21T01:19:18;7.65;;;5.00;;
53505;SDS011;39388;50.936;6.848;2022-08-21T01:21:50;6.65;;;5.07;;
53505;SDS011;39388;50.936;6.848;2022-08-21T01:24:21;5.95;;;4.55;;
53505;SDS011;39388;50.936;6.848;2022-08-21T01:26:51;8.38;;;5.10;;
53505;SDS011;39388;50.936;6.848;2022-08-21T01:29:26;6.50;;;5.03;;
53505;SDS011;39388;50.936;6.848;2022-08-21T01:32:09;8.43;;;5.25;;
53505;SDS011;39388;50.936;6.848;2022-08-21T01:34:43;9.48;;;5.45;;
53505;SDS011;39388;50.936;6.848;2022-08-21T01:37:16;9.90;;;5.30;;
53505;SDS011;39388;50.936;6.848;2022-08-21T01:39:47;8.73;;;5.47;;
53505;SDS011;39388;50.936;6.848;2022-08-21T01:42:18;10.38;;;5.95;;
53505;SDS011;39388;50.936;6.848;2022-08-21T01:44:48;8.02;;;5.65;;
53505;SDS011;39388;50.936;6.848;2022-08-21T01:47:18;8.15;;;5.88;;
53505;SDS011;39388;50.936;6.848;2022-08-21T01:49:49;10.15;;;5.30;;
53505;SDS011;39388;50.936;6.848;2022-08-21T01:52:19;8.82;;;5.47;;
53505;SDS011;39388;50.936;6.848;2022-08-21T01:54:50;9.55;;;5.47;;
53505;SDS011;39388;50.936;6.848;2022-08-21T01:57:21;8.07;;;5.55;;
53505;SDS011;39388;50.936;6.848;2022-08-21T01:59:52;8.32;;;5.38;;
53505;SDS011;39388;50.936;6.848;2022-08-21T02:02:22;6.80;;;5.22;;
53505;SDS011;39388;50.936;6.848;2022-08-21T02:04:53;6.82;;;4.68;;
53505;SDS011;39388;50.936;6.848;2022-08-21T02:07:23;6.78;;;5.15;;
53505;SDS011;39388;50.936;6.848;2022-08-21T02:09:53;7.57;;;5.13;;
53505;SDS011;39388;50.936;6.848;2022-08-21T02:12:24;6.93;;;5.03;;
53505;SDS011;39388;50.936;6.848;2022-08-21T02:14:54;9.32;;;5.25;;
53505;SDS011;39388;50.936;6.848;2022-08-21T02:17:25;7.68;;;5.13;;
53505;SDS011;39388;50.936;6.848;2022-08-21T02:19:55;7.53;;;4.80;;
53505;SDS011;39388;50.936;6.848;2022-08-21T02:22:25;9.20;;;5.47;;
53505;SDS011;39388;50.936;6.848;2022-08-21T02:24:56;9.40;;;5.30;;
53505;SDS011;39388;50.936;6.848;2022-08-21T02:27:26;11.13;;;5.63;;
53505;SDS011;39388;50.936;6.848;2022-08-21T02:29:57;8.85;;;5.13;;
53505;SDS011;39388;50.936;6.848;2022-08-21T02:32:27;7.50;;;5.13;;
53505;SDS011;39388;50.936;6.848;2022-08-21T02:34:58;8.60;;;5.45;;
53505;SDS011;39388;50.936;6.848;2022-08-21T02:37:28;8.27;;;5.00;;
53505;SDS011;39388;50.936;6.848;2022-08-21T02:39:59;10.63;;;5.15;;
53505;SDS011;39388;50.936;6.848;2022-08-21T02:42:31;7.93;;;4.75;;
53505;SDS011;39388;50.936;6.848;2022-08-21T02:45:01;6.68;;;4.97;;
53505;SDS011;39388;50.936;6.848;2022-08-21T02:47:31;5.72;;;4.78;;
53505;SDS011;39388;50.936;6.848;2022-08-21T02:50:02;6.50;;;5.35;;
53505;SDS011;39388;50.936;6.848;2022-08-21T02:52:33;7.03;;;4.63;;
53505;SDS011;39388;50.936;6.848;2022-08-21T02:55:04;7.75;;;4.90;;
53505;SDS011;39388;50.936;6.848;2022-08-21T02:57:35;7.38;;;4.80;;
53505;SDS011;39388;50.936;6.848;2022-08-21T03:00:06;6.28;;;5.10;;
53505;SDS011;39388;50.936;6.848;2022-08-21T03:02:39;9.23;;;5.10;;
53505;SDS011;39388;50.936;6.848;2022-08-21T03:05:09;7.40;;;4.15;;
53505;SDS011;39388;50.936;6.848;2022-08-21T03:07:41;7.50;;;5.05;;
53505;SDS011;39388;50.936;6.848;2022-08-21T03:10:12;8.75;;;4.65;;
53505;SDS011;39388;50.936;6.848;2022-08-21T03:12:44;7.60;;;4.87;;
53505;SDS011;39388;50.936;6.848;2022-08-21T03:15:15;6.18;;;4.82;;
53505;SDS011;39388;50.936;6.848;2022-08-21T03:17:47;8.38;;;4.93;;
53505;SDS011;39388;50.936;6.848;2022-08-21T03:20:19;6.18;;;4.07;;
53505;SDS011;39388;50.936;6.848;2022-08-21T03:22:53;7.07;;;4.25;;
53505;SDS011;39388;50.936;6.848;2022-08-21T03:25:25;6.40;;;4.70;;
53505;SDS011;39388;50.936;6.848;2022-08-21T03:27:56;6.38;;;5.03;;
53505;SDS011;39388;50.936;6.848;2022-08-21T03:30:27;8.65;;;4.72;;
53505;SDS011;39388;50.936;6.848;2022-08-21T03:32:59;8.52;;;4.50;;
53505;SDS011;39388;50.936;6.848;2022-08-21T03:35:29;8.00;;;4.40;;
53505;SDS011;39388;50.936;6.848;2022-08-21T03:38:00;7.13;;;4.57;;
53505;SDS011;39388;50.936;6.848;2022-08-21T03:40:30;6.60;;;4.55;;
53505;SDS011;39388;50.936;6.848;2022-08-21T03:43:01;5.00;;;4.50;;
53505;SDS011;39388;50.936;6.848;2022-08-21T03:45:31;8.77;;;4.80;;
53505;SDS011;39388;50.936;6.848;2022-08-21T03:48:03;7.70;;;4.60;;
53505;SDS011;39388;50.936;6.848;2022-08-21T03:50:38;11.57;;;4.88;;
53505;SDS011;39388;50.936;6.848;2022-08-21T03:53:11;8.07;;;4.47;;
53505;SDS011;39388;50.936;6.848;2022-08-21T03:55:42;6.10;;;4.47;;
53505;SDS011;39388;50.936;6.848;2022-08-21T03:58:14;5.55;;;4.35;;
53505;SDS011;39388;50.936;6.848;2022-08-21T04:00:47;9.23;;;5.13;;
53505;SDS011;39388;50.936;6.848;2022-08-21T04:03:19;7.82;;;4.97;;
53505;SDS011;39388;50.936;6.848;2022-08-21T04:05:50;6.18;;;4.20;;
53505;SDS011;39388;50.936;6.848;2022-08-21T04:08:21;10.40;;;5.38;;
53505;SDS011;39388;50.936;6.848;2022-08-21T04:10:52;6.47;;;4.50;;
53505;SDS011;39388;50.936;6.848;2022-08-21T04:13:25;9.13;;;4.80;;
53505;SDS011;39388;50.936;6.848;2022-08-21T04:15:57;6.38;;;4.50;;
53505;SDS011;39388;50.936;6.848;2022-08-21T04:18:28;7.32;;;4.82;;
53505;SDS011;39388;50.936;6.848;2022-08-21T04:20:58;7.25;;;4.75;;
53505;SDS011;39388;50.936;6.848;2022-08-21T04:23:30;7.22;;;4.50;;
53505;SDS011;39388;50.936;6.848;2022-08-21T04:26:00;8.35;;;4.80;;
53505;SDS011;39388;50.936;6.848;2022-08-21T04:28:30;7.03;;;4.70;;
53505;SDS011;39388;50.936;6.848;2022-08-21T04:31:01;9.88;;;5.32;;
53505;SDS011;39388;50.936;6.848;2022-08-21T04:33:31;9.15;;;5.03;;
53505;SDS011;39388;50.936;6.848;2022-08-21T04:36:02;7.20;;;4.88;;
53505;SDS011;39388;50.936;6.848;2022-08-21T04:38:33;10.73;;;4.78;;
53505;SDS011;39388;50.936;6.848;2022-08-21T04:41:04;7.32;;;4.82;;
53505;SDS011;39388;50.936;6.848;2022-08-21T04:43:35;7.00;;;4.10;;
53505;SDS011;39388;50.936;6.848;2022-08-21T04:46:06;5.65;;;4.30;;
53505;SDS011;39388;50.936;6.848;2022-08-21T04:48:36;4.97;;;4.38;;
53505;SDS011;39388;50.936;6.848;2022-08-21T04:51:11;7.63;;;4.60;;
53505;SDS011;39388;50.936;6.848;2022-08-21T04:53:47;8.13;;;4.35;;
53505;SDS011;39388;50.936;6.848;2022-08-21T04:59:02;5.88;;;4.43;;
53505;SDS011;39388;50.936;6.848;2022-08-21T05:01:36;8.18;;;4.53;;
53505;SDS011;39388;50.936;6.848;2022-08-21T05:04:10;7.68;;;4.38;;
53505;SDS011;39388;50.936;6.848;2022-08-21T05:06:44;7.13;;;4.25;;
53505;SDS011;39388;50.936;6.848;2022-08-21T05:09:19;6.85;;;4.25;;
53505;SDS011;39388;50.936;6.848;2022-08-21T05:11:50;5.43;;;4.38;;
53505;SDS011;39388;50.936;6.848;2022-08-21T05:14:22;7.70;;;4.57;;
53505;SDS011;39388;50.936;6.848;2022-08-21T05:16:53;8.45;;;4.72;;
53505;SDS011;39388;50.936;6.848;2022-08-21T05:19:23;6.25;;;4.20;;
53505;SDS011;39388;50.936;6.848;2022-08-21T05:21:54;7.65;;;5.20;;
53505;SDS011;39388;50.936;6.848;2022-08-21T05:24:25;7.55;;;4.80;;
53505;SDS011;39388;50.936;6.848;2022-08-21T05:26:56;4.93;;;3.92;;
53505;SDS011;39388;50.936;6.848;2022-08-21T05:29:27;7.57;;;4.65;;
53505;SDS011;39388;50.936;6.848;2022-08-21T05:32:01;6.65;;;4.78;;
53505;SDS011;39388;50.936;6.848;2022-08-21T05:34:38;6.00;;;4.47;;
53505;SDS011;39388;50.936;6.848;2022-08-21T05:37:12;7.22;;;4.82;;
53505;SDS011;39388;50.936;6.848;2022-08-21T05:39:42;6.65;;;4.95;;
53505;SDS011;39388;50.936;6.848;2022-08-21T05:42:13;6.13;;;4.65;;
53505;SDS011;39388;50.936;6.848;2022-08-21T05:44:45;7.78;;;4.82;;
53505;SDS011;39388;50.936;6.848;2022-08-21T05:47:26;6.22;;;4.50;;
53505;SDS011;39388;50.936;6.848;2022-08-21T05:52:55;7.22;;;5.35;;
53505;SDS011;39388;50.936;6.848;2022-08-21T05:55:26;6.78;;;4.55;;
53505;SDS011;39388;50.936;6.848;2022-08-21T05:57:56;9.55;;;4.78;;
53505;SDS011;39388;50.936;6.848;2022-08-21T06:00:27;6.72;;;4.38;;
53505;SDS011;39388;50.936;6.848;2022-08-21T06:02:59;6.68;;;4.88;;
53505;SDS011;39388;50.936;6.848;2022-08-21T06:05:35;8.55;;;4.85;;
53505;SDS011;39388;50.936;6.848;2022-08-21T06:08:35;5.63;;;3.95;;
53505;SDS011;39388;50.936;6.848;2022-08-21T06:14:39;9.57;;;4.35;;
53505;SDS011;39388;50.936;6.848;2022-08-21T06:21:02;6.50;;;3.75;;
53505;SDS011;39388;50.936;6.848;2022-08-21T06:23:33;8.23;;;3.97;;
53505;SDS011;39388;50.936;6.848;2022-08-21T06:26:11;6.47;;;3.90;;
53505;SDS011;39388;50.936;6.848;2022-08-21T06:29:41;6.22;;;3.72;;
53505;SDS011;39388;50.936;6.848;2022-08-21T06:33:09;5.65;;;3.25;;
53505;SDS011;39388;50.936;6.848;2022-08-21T06:35:40;5.43;;;2.97;;
53505;SDS011;39388;50.936;6.848;2022-08-21T06:38:10;4.93;;;3.15;;
53505;SDS011;39388;50.936;6.848;2022-08-21T06:40:41;6.53;;;3.25;;
53505;SDS011;39388;50.936;6.848;2022-08-21T06:43:12;6.45;;;3.30;;
53505;SDS011;39388;50.936;6.848;2022-08-21T06:45:45;4.63;;;2.97;;
53505;SDS011;39388;50.936;6.848;2022-08-21T06:48:15;5.55;;;2.63;;
53505;SDS011;39388;50.936;6.848;2022-08-21T06:50:46;7.20;;;2.90;;
53505;SDS011;39388;50.936;6.848;2022-08-21T06:53:18;5.57;;;2.40;;
53505;SDS011;39388;50.936;6.848;2022-08-21T06:55:50;4.93;;;2.40;;
53505;SDS011;39388;50.936;6.848;2022-08-21T06:58:20;5.65;;;2.40;;
53505;SDS011;39388;50.936;6.848;2022-08-21T07:00:51;5.25;;;2.58;;
53505;SDS011;39388;50.936;6.848;2022-08-21T07:03:26;6.38;;;2.40;;
53505;SDS011;39388;50.936;6.848;2022-08-21T07:06:01;6.30;;;2.50;;
53505;SDS011;39388;50.936;6.848;2022-08-21T07:08:32;8.25;;;2.42;;
53505;SDS011;39388;50.936;6.848;2022-08-21T07:11:04;5.00;;;2.10;;
53505;SDS011;39388;50.936;6.848;2022-08-21T07:13:41;5.05;;;2.05;;
53505;SDS011;39388;50.936;6.848;2022-08-21T07:16:11;7.05;;;2.53;;
53505;SDS011;39388;50.936;6.848;2022-08-21T07:18:44;3.97;;;2.13;;
53505;SDS011;39388;50.936;6.848;2022-08-21T07:21:15;7.78;;;2.40;;
53505;SDS011;39388;50.936;6.848;2022-08-21T07:23:47;3.25;;;1.90;;
53505;SDS011;39388;50.936;6.848;2022-08-21T07:26:20;4.18;;;2.15;;
53505;SDS011;39388;50.936;6.848;2022-08-21T07:28:52;5.15;;;1.90;;
53505;SDS011;39388;50.936;6.848;2022-08-21T07:31:24;6.85;;;2.28;;
53505;SDS011;39388;50.936;6.848;2022-08-21T07:33:56;3.72;;;1.80;;
53505;SDS011;39388;50.936;6.848;2022-08-21T07:36:26;5.18;;;1.90;;
53505;SDS011;39388;50.936;6.848;2022-08-21T07:38:57;5.50;;;2.05;;
53505;SDS011;39388;50.936;6.848;2022-08-21T07:41:28;4.13;;;1.77;;
53505;SDS011;39388;50.936;6.848;2022-08-21T07:43:59;3.42;;;1.70;;
53505;SDS011;39388;50.936;6.848;2022-08-21T07:46:29;4.65;;;1.75;;
53505;SDS011;39388;50.936;6.848;2022-08-21T07:49:00;4.50;;;1.67;;
53505;SDS011;39388;50.936;6.848;2022-08-21T07:51:30;4.57;;;2.00;;
53505;SDS011;39388;50.936;6.848;2022-08-21T07:54:03;4.43;;;2.10;;
53505;SDS011;39388;50.936;6.848;2022-08-21T07:56:33;4.40;;;1.67;;
53505;SDS011;39388;50.936;6.848;2022-08-21T07:59:04;7.18;;;1.58;;
53505;SDS011;39388;50.936;6.848;2022-08-21T08:01:34;3.70;;;1.67;;
53505;SDS011;39388;50.936;6.848;2022-08-21T08:04:05;3.58;;;1.33;;
53505;SDS011;39388;50.936;6.848;2022-08-21T08:06:35;3.88;;;1.42;;
53505;SDS011;39388;50.936;6.848;2022-08-21T08:09:06;3.67;;;1.40;;
53505;SDS011;39388;50.936;6.848;2022-08-21T08:11:36;3.70;;;1.50;;
53505;SDS011;39388;50.936;6.848;2022-08-21T08:14:11;4.07;;;1.42;;
53505;SDS011;39388;50.936;6.848;2022-08-21T08:16:41;2.83;;;1.38;;
53505;SDS011;39388;50.936;6.848;2022-08-21T08:19:12;4.70;;;1.33;;
53505;SDS011;39388;50.936;6.848;2022-08-21T08:21:42;3.65;;;1.45;;
53505;SDS011;39388;50.936;6.848;2022-08-21T08:24:18;5.03;;;1.42;;
53505;SDS011;39388;50.936;6.848;2022-08-21T08:26:49;4.97;;;1.67;;
53505;SDS011;39388;50.936;6.848;2022-08-21T08:29:20;3.40;;;1.25;;
53505;SDS011;39388;50.936;6.848;2022-08-21T08:31:52;5.78;;;1.48;;
53505;SDS011;39388;50.936;6.848;2022-08-21T08:34:22;3.88;;;1.40;;
53505;SDS011;39388;50.936;6.848;2022-08-21T08:36:53;3.33;;;1.67;;
53505;SDS011;39388;50.936;6.848;2022-08-21T08:39:23;4.03;;;1.23;;
53505;SDS011;39388;50.936;6.848;2022-08-21T08:42:06;4.40;;;1.38;;
53505;SDS011;39388;50.936;6.848;2022-08-21T08:44:43;3.38;;;1.20;;
53505;SDS011;39388;50.936;6.848;2022-08-21T08:47:16;2.95;;;1.20;;
53505;SDS011;39388;50.936;6.848;2022-08-21T08:49:53;3.88;;;1.30;;
53505;SDS011;39388;50.936;6.848;2022-08-21T08:52:31;5.93;;;1.50;;
53505;SDS011;39388;50.936;6.848;2022-08-21T08:55:08;4.95;;;1.40;;
53505;SDS011;39388;50.936;6.848;2022-08-21T08:57:44;5.30;;;1.80;;
53505;SDS011;39388;50.936;6.848;2022-08-21T09:00:18;3.50;;;1.48;;
53505;SDS011;39388;50.936;6.848;2022-08-21T09:02:54;4.70;;;1.70;;
53505;SDS011;39388;50.936;6.848;2022-08-21T09:05:30;6.60;;;1.90;;
53505;SDS011;39388;50.936;6.848;2022-08-21T09:14:07;4.55;;;1.58;;
53505;SDS011;39388;50.936;6.848;2022-08-21T09:16:52;3.67;;;1.40;;
53505;SDS011;39388;50.936;6.848;2022-08-21T09:28:42;4.18;;;1.60;;
53505;SDS011;39388;50.936;6.848;2022-08-21T09:33:47;4.00;;;1.42;;
53505;SDS011;39388;50.936;6.848;2022-08-21T09:39:08;4.40;;;1.40;;
53505;SDS011;39388;50.936;6.848;2022-08-21T09:41:40;2.80;;;1.33;;
53505;SDS011;39388;50.936;6.848;2022-08-21T09:44:10;4.13;;;1.50;;
53505;SDS011;39388;50.936;6.848;2022-08-21T09:46:49;4.78;;;1.45;;
53505;SDS011;39388;50.936;6.848;2022-08-21T09:49:30;3.15;;;1.13;;
53505;SDS011;39388;50.936;6.848;2022-08-21T09:52:05;4.78;;;1.27;;
53505;SDS011;39388;50.936;6.848;2022-08-21T09:54:46;3.75;;;1.20;;
53505;SDS011;39388;50.936;6.848;2022-08-21T09:57:23;4.28;;;1.10;;
53505;SDS011;39388;50.936;6.848;2022-08-21T10:00:30;4.65;;;1.40;;
53505;SDS011;39388;50.936;6.848;2022-08-21T10:03:14;3.17;;;1.25;;
53505;SDS011;39388;50.936;6.848;2022-08-21T10:08:36;3.83;;;1.38;;
53505;SDS011;39388;50.936;6.848;2022-08-21T10:11:10;5.07;;;1.48;;
53505;SDS011;39388;50.936;6.848;2022-08-21T10:24:38;4.78;;;1.42;;
53505;SDS011;39388;50.936;6.848;2022-08-21T10:27:27;4.88;;;1.27;;
53505;SDS011;39388;50.936;6.848;2022-08-21T10:30:13;3.65;;;1.35;;
53505;SDS011;39388;50.936;6.848;2022-08-21T10:32:52;2.97;;;1.40;;
53505;SDS011;39388;50.936;6.848;2022-08-21T10:55:08;4.05;;;1.50;;
53505;SDS011;39388;50.936;6.848;2022-08-21T11:00:28;3.35;;;1.27;;
53505;SDS011;39388;50.936;6.848;2022-08-21T11:03:16;4.50;;;1.30;;
53505;SDS011;39388;50.936;6.848;2022-08-21T11:05:55;2.60;;;1.20;;
53505;SDS011;39388;50.936;6.848;2022-08-21T11:08:38;4.18;;;1.35;;
53505;SDS011;39388;50.936;6.848;2022-08-21T11:11:16;3.90;;;1.20;;
53505;SDS011;39388;50.936;6.848;2022-08-21T11:19:25;2.97;;;1.17;;
53505;SDS011;39388;50.936;6.848;2022-08-21T11:22:04;3.83;;;1.23;;
53505;SDS011;39388;50.936;6.848;2022-08-21T11:24:47;2.72;;;1.25;;
53505;SDS011;39388;50.936;6.848;2022-08-21T11:27:44;6.55;;;1.48;;
53505;SDS011;39388;50.936;6.848;2022-08-21T11:30:19;4.70;;;1.10;;
53505;SDS011;39388;50.936;6.848;2022-08-21T12:04:50;4.57;;;1.13;;
53505;SDS011;39388;50.936;6.848;2022-08-21T12:10:30;2.92;;;0.95;;
53505;SDS011;39388;50.936;6.848;2022-08-21T12:13:10;4.20;;;1.15;;
53505;SDS011;39388;50.936;6.848;2022-08-21T12:15:52;3.80;;;1.10;;
53505;SDS011;39388;50.936;6.848;2022-08-21T12:18:27;2.90;;;1.03;;
53505;SDS011;39388;50.936;6.848;2022-08-21T12:23:43;3.85;;;1.17;;
53505;SDS011;39388;50.936;6.848;2022-08-21T12:29:07;4.13;;;1.15;;
53505;SDS011;39388;50.936;6.848;2022-08-21T12:31:51;2.42;;;0.98;;
53505;SDS011;39388;50.936;6.848;2022-08-21T12:34:22;2.58;;;1.40;;
53505;SDS011;39388;50.936;6.848;2022-08-21T12:37:16;2.65;;;1.20;;
53505;SDS011;39388;50.936;6.848;2022-08-21T12:40:02;2.33;;;1.17;;
53505;SDS011;39388;50.936;6.848;2022-08-21T12:42:41;2.53;;;1.25;;
53505;SDS011;39388;50.936;6.848;2022-08-21T12:45:29;3.50;;;1.10;;
53505;SDS011;39388;50.936;6.848;2022-08-21T12:48:10;4.88;;;1.40;;
53505;SDS011;39388;50.936;6.848;2022-08-21T12:50:54;2.92;;;1.20;;
53505;SDS011;39388;50.936;6.848;2022-08-21T12:56:23;3.88;;;1.33;;
53505;SDS011;39388;50.936;6.848;2022-08-21T12:59:03;2.55;;;1.10;;
53505;SDS011;39388;50.936;6.848;2022-08-21T13:01:49;5.82;;;1.40;;
53505;SDS011;39388;50.936;6.848;2022-08-21T13:04:25;3.97;;;1.38;;
53505;SDS011;39388;50.936;6.848;2022-08-21T13:07:05;3.08;;;1.08;;
53505;SDS011;39388;50.936;6.848;2022-08-21T13:09:48;3.08;;;1.40;;
53505;SDS011;39388;50.936;6.848;2022-08-21T13:12:22;4.03;;;1.20;;
53505;SDS011;39388;50.936;6.848;2022-08-21T13:14:55;2.90;;;1.30;;
53505;SDS011;39388;50.936;6.848;2022-08-21T13:17:29;4.28;;;1.50;;
53505;SDS011;39388;50.936;6.848;2022-08-21T13:20:07;3.72;;;1.27;;
53505;SDS011;39388;50.936;6.848;2022-08-21T13:22:41;5.25;;;1.50;;
53505;SDS011;39388;50.936;6.848;2022-08-21T13:25:14;5.88;;;1.50;;
53505;SDS011;39388;50.936;6.848;2022-08-21T13:28:07;2.55;;;1.00;;
53505;SDS011;39388;50.936;6.848;2022-08-21T13:30:42;3.80;;;1.20;;
53505;SDS011;39388;50.936;6.848;2022-08-21T13:33:34;4.18;;;1.50;;
53505;SDS011;39388;50.936;6.848;2022-08-21T13:36:07;2.63;;;1.10;;
53505;SDS011;39388;50.936;6.848;2022-08-21T13:38:41;2.85;;;1.40;;
53505;SDS011;39388;50.936;6.848;2022-08-21T13:41:21;2.85;;;1.10;;
53505;SDS011;39388;50.936;6.848;2022-08-21T13:44:02;3.55;;;1.25;;
53505;SDS011;39388;50.936;6.848;2022-08-21T13:46:44;3.70;;;1.20;;
53505;SDS011;39388;50.936;6.848;2022-08-21T13:49:17;2.90;;;1.30;;
53505;SDS011;39388;50.936;6.848;2022-08-21T13:51:49;2.85;;;1.52;;
53505;SDS011;39388;50.936;6.848;2022-08-21T13:54:43;2.60;;;1.27;;
53505;SDS011;39388;50.936;6.848;2022-08-21T13:57:18;2.55;;;1.17;;
53505;SDS011;39388;50.936;6.848;2022-08-21T14:00:08;3.75;;;1.20;;
53505;SDS011;39388;50.936;6.848;2022-08-21T14:02:43;2.55;;;1.17;;
53505;SDS011;39388;50.936;6.848;2022-08-21T14:05:21;2.08;;;0.98;;
53505;SDS011;39388;50.936;6.848;2022-08-21T14:10:43;2.55;;;1.05;;
53505;SDS011;39388;50.936;6.848;2022-08-21T14:13:29;4.88;;;1.20;;
53505;SDS011;39388;50.936;6.848;2022-08-21T14:16:21;2.45;;;1.10;;
53505;SDS011;39388;50.936;6.848;2022-08-21T14:21:35;3.08;;;0.98;;
53505;SDS011;39388;50.936;6.848;2022-08-21T14:24:10;2.75;;;1.35;;
53505;SDS011;39388;50.936;6.848;2022-08-21T14:26:44;2.80;;;1.08;;
53505;SDS011;39388;50.936;6.848;2022-08-21T14:29:19;1.90;;;1.33;;
53505;SDS011;39388;50.936;6.848;2022-08-21T14:31:53;2.30;;;1.13;;
53505;SDS011;39388;50.936;6.848;2022-08-21T14:34:27;1.88;;;0.82;;
53505;SDS011;39388;50.936;6.848;2022-08-21T14:36:59;2.80;;;0.90;;
53505;SDS011;39388;50.936;6.848;2022-08-21T14:39:29;2.63;;;1.00;;
53505;SDS011;39388;50.936;6.848;2022-08-21T14:42:00;2.63;;;1.10;;
53505;SDS011;39388;50.936;6.848;2022-08-21T14:44:31;3.80;;;1.20;;
53505;SDS011;39388;50.936;6.848;2022-08-21T14:47:02;2.57;;;1.00;;
53505;SDS011;39388;50.936;6.848;2022-08-21T14:49:32;4.45;;;1.23;;
53505;SDS011;39388;50.936;6.848;2022-08-21T14:52:03;2.63;;;1.27;;
53505;SDS011;39388;50.936;6.848;2022-08-21T14:54:33;1.77;;;0.90;;
53505;SDS011;39388;50.936;6.848;2022-08-21T14:57:05;4.35;;;1.10;;
53505;SDS011;39388;50.936;6.848;2022-08-21T14:59:38;4.57;;;1.00;;
53505;SDS011;39388;50.936;6.848;2022-08-21T15:02:12;1.88;;;0.90;;
53505;SDS011;39388;50.936;6.848;2022-08-21T15:04:42;2.45;;;0.90;;
53505;SDS011;39388;50.936;6.848;2022-08-21T15:07:13;2.53;;;1.00;;
53505;SDS011;39388;50.936;6.848;2022-08-21T15:09:43;2.72;;;1.02;;
53505;SDS011;39388;50.936;6.848;2022-08-21T15:12:13;2.92;;;1.15;;
53505;SDS011;39388;50.936;6.848;2022-08-21T15:14:44;2.80;;;1.10;;
53505;SDS011;39388;50.936;6.848;2022-08-21T15:17:15;3.03;;;1.10;;
53505;SDS011;39388;50.936;6.848;2022-08-21T15:19:46;3.17;;;1.10;;
53505;SDS011;39388;50.936;6.848;2022-08-21T15:22:16;2.58;;;1.10;;
53505;SDS011;39388;50.936;6.848;2022-08-21T15:24:47;3.70;;;0.95;;
53505;SDS011;39388;50.936;6.848;2022-08-21T15:27:17;2.03;;;1.20;;
53505;SDS011;39388;50.936;6.848;2022-08-21T15:29:48;2.17;;;1.30;;
53505;SDS011;39388;50.936;6.848;2022-08-21T15:32:23;3.83;;;1.53;;
53505;SDS011;39388;50.936;6.848;2022-08-21T15:34:59;2.55;;;1.10;;
53505;SDS011;39388;50.936;6.848;2022-08-21T15:37:32;3.38;;;1.42;;
53505;SDS011;39388;50.936;6.848;2022-08-21T15:40:03;3.45;;;1.38;;
53505;SDS011;39388;50.936;6.848;2022-08-21T15:42:37;1.30;;;0.90;;
53505;SDS011;39388;50.936;6.848;2022-08-21T15:45:09;1.85;;;1.00;;
53505;SDS011;39388;50.936;6.848;2022-08-21T15:47:42;1.75;;;0.95;;
53505;SDS011;39388;50.936;6.848;2022-08-21T15:50:14;3.03;;;1.10;;
53505;SDS011;39388;50.936;6.848;2022-08-21T15:52:45;2.08;;;1.10;;
53505;SDS011;39388;50.936;6.848;2022-08-21T15:55:15;2.65;;;1.10;;
53505;SDS011;39388;50.936;6.848;2022-08-21T15:57:47;2.95;;;1.20;;
53505;SDS011;39388;50.936;6.848;2022-08-21T16:00:21;2.15;;;1.23;;
53505;SDS011;39388;50.936;6.848;2022-08-21T16:02:54;1.95;;;0.90;;
53505;SDS011;39388;50.936;6.848;2022-08-21T16:05:28;3.90;;;1.10;;
53505;SDS011;39388;50.936;6.848;2022-08-21T16:07:58;2.83;;;1.45;;
53505;SDS011;39388;50.936;6.848;2022-08-21T16:10:29;3.58;;;1.33;;
53505;SDS011;39388;50.936;6.848;2022-08-21T16:13:02;2.55;;;1.15;;
53505;SDS011;39388;50.936;6.848;2022-08-21T16:15:35;2.05;;;1.00;;
53505;SDS011;39388;50.936;6.848;2022-08-21T16:18:05;1.33;;;0.80;;
53505;SDS011;39388;50.936;6.848;2022-08-21T16:20:36;2.83;;;1.40;;
53505;SDS011;39388;50.936;6.848;2022-08-21T16:23:06;1.58;;;0.93;;
53505;SDS011;39388;50.936;6.848;2022-08-21T16:25:37;2.40;;;1.17;;
53505;SDS011;39388;50.936;6.848;2022-08-21T16:28:10;5.63;;;1.27;;
53505;SDS011;39388;50.936;6.848;2022-08-21T16:30:45;1.20;;;1.10;;
53505;SDS011;39388;50.936;6.848;2022-08-21T16:35:59;2.17;;;0.90;;
53505;SDS011;39388;50.936;6.848;2022-08-21T16:38:30;2.17;;;1.20;;
53505;SDS011;39388;50.936;6.848;2022-08-21T16:41:01;2.13;;;1.13;;
53505;SDS011;39388;50.936;6.848;2022-08-21T16:43:32;3.60;;;1.23;;
53505;SDS011;39388;50.936;6.848;2022-08-21T16:46:03;2.25;;;1.00;;
53505;SDS011;39388;50.936;6.848;2022-08-21T16:48:34;4.20;;;1.60;;
53505;SDS011;39388;50.936;6.848;2022-08-21T16:51:04;2.03;;;0.77;;
53505;SDS011;39388;50.936;6.848;2022-08-21T16:53:35;1.55;;;1.10;;
53505;SDS011;39388;50.936;6.848;2022-08-21T16:56:06;2.30;;;1.00;;
53505;SDS011;39388;50.936;6.848;2022-08-21T16:58:39;1.85;;;1.10;;
53505;SDS011;39388;50.936;6.848;2022-08-21T17:01:12;1.98;;;0.98;;
53505;SDS011;39388;50.936;6.848;2022-08-21T17:03:46;2.05;;;1.30;;
53505;SDS011;39388;50.936;6.848;2022-08-21T17:06:20;2.92;;;1.20;;
53505;SDS011;39388;50.936;6.848;2022-08-21T17:08:51;3.85;;;1.40;;
53505;SDS011;39388;50.936;6.848;2022-08-21T17:11:43;2.20;;;1.20;;
53505;SDS011;39388;50.936;6.848;2022-08-21T17:14:17;4.55;;;1.42;;
53505;SDS011;39388;50.936;6.848;2022-08-21T17:16:51;3.25;;;0.93;;
53505;SDS011;39388;50.936;6.848;2022-08-21T17:19:23;2.10;;;1.38;;
53505;SDS011;39388;50.936;6.848;2022-08-21T17:21:53;2.85;;;1.05;;
53505;SDS011;39388;50.936;6.848;2022-08-21T17:24:24;2.63;;;1.20;;
53505;SDS011;39388;50.936;6.848;2022-08-21T17:26:54;2.25;;;1.10;;
53505;SDS011;39388;50.936;6.848;2022-08-21T17:29:27;2.15;;;1.25;;
53505;SDS011;39388;50.936;6.848;2022-08-21T17:32:00;3.20;;;1.23;;
53505;SDS011;39388;50.936;6.848;2022-08-21T17:34:32;1.83;;;0.95;;
53505;SDS011;39388;50.936;6.848;2022-08-21T17:37:03;2.42;;;1.10;;
53505;SDS011;39388;50.936;6.848;2022-08-21T17:42:07;3.20;;;1.13;;